sensor_id;sensor_type;location;lat;lon;timestamp;noise_LAeq;noise_LA_min;noise_LA_max;noise_LA01;noise_LA95
37223;Laerm;28026;48.562;14.440;2022-10-13T00:02:09;38.99;31.68;44.31;;
37223;Laerm;28026;48.562;14.440;2022-10-13T00:04:40;39.70;33.44;45.17;;
37223;Laerm;28026;48.562;14.440;2022-10-13T00:07:10;37.23;32.35;42.29;;
37223;Laerm;28026;48.562;14.440;2022-10-13T00:09:41;37.56;32.35;43.58;;
37223;Laerm;28026;48.562;14.440;2022-10-13T00:12:12;37.13;31.68;42.65;;
37223;Laerm;28026;48.562;14.440;2022-10-13T00:14:43;37.28;32.35;41.96;;
37223;Laerm;28026;48.562;14.440;2022-10-13T00:17:14;37.46;32.35;44.54;;
37223;Laerm;28026;48.562;14.440;2022-10-13T00:19:45;36.98;30.89;42.09;;
37223;Laerm;28026;48.562;14.440;2022-10-13T00:22:16;41.54;32.93;45.17;;
37223;Laerm;28026;48.562;14.440;2022-10-13T00:24:52;39.89;32.93;44.11;;
37223;Laerm;28026;48.562;14.440;2022-10-13T00:27:23;37.10;31.68;41.22;;
37223;Laerm;28026;48.562;14.440;2022-10-13T00:29:54;38.87;31.68;43.04;;
37223;Laerm;28026;48.562;14.440;2022-10-13T00:32:25;38.22;32.35;42.59;;
37223;Laerm;28026;48.562;14.440;2022-10-13T00:34:56;37.63;31.68;42.16;;
37223;Laerm;28026;48.562;14.440;2022-10-13T00:37:27;38.03;32.93;42.29;;
37223;Laerm;28026;48.562;14.440;2022-10-13T00:39:58;37.42;30.89;41.68;;
37223;Laerm;28026;48.562;14.440;2022-10-13T00:42:29;37.66;31.68;41.61;;
37223;Laerm;28026;48.562;14.440;2022-10-13T00:45:19;37.52;31.68;41.30;;
37223;Laerm;28026;48.562;14.440;2022-10-13T00:48:00;37.54;32.35;41.68;;
37223;Laerm;28026;48.562;14.440;2022-10-13T00:50:39;37.29;32.35;41.46;;
37223;Laerm;28026;48.562;14.440;2022-10-13T00:53:14;37.16;31.68;41.06;;
37223;Laerm;28026;48.562;14.440;2022-10-13T00:55:47;37.67;31.68;41.96;;
37223;Laerm;28026;48.562;14.440;2022-10-13T00:58:24;40.45;33.90;48.29;;
37223;Laerm;28026;48.562;14.440;2022-10-13T01:00:55;38.80;33.44;42.93;;
37223;Laerm;28026;48.562;14.440;2022-10-13T01:03:27;37.44;32.35;41.06;;
37223;Laerm;28026;48.562;14.440;2022-10-13T01:06:02;37.26;32.35;43.24;;
37223;Laerm;28026;48.562;14.440;2022-10-13T01:08:35;37.48;32.35;41.38;;
37223;Laerm;28026;48.562;14.440;2022-10-13T01:15:16;37.34;32.93;41.68;;
37223;Laerm;28026;48.562;14.440;2022-10-13T01:30:18;37.63;32.93;41.82;;
37223;Laerm;28026;48.562;14.440;2022-10-13T01:33:41;37.39;32.35;45.57;;
37223;Laerm;28026;48.562;14.440;2022-10-13T01:42:16;38.04;29.92;51.29;;
37223;Laerm;28026;48.562;14.440;2022-10-13T01:44:59;40.17;35.04;45.75;;
37223;Laerm;28026;48.562;14.440;2022-10-13T01:47:36;37.91;32.35;41.96;;
37223;Laerm;28026;48.562;14.440;2022-10-13T01:50:09;38.84;33.90;45.45;;
37223;Laerm;28026;48.562;14.440;2022-10-13T01:52:42;37.76;32.93;41.22;;
37223;Laerm;28026;48.562;14.440;2022-10-13T01:55:13;37.58;32.93;41.22;;
37223;Laerm;28026;48.562;14.440;2022-10-13T01:57:44;38.76;33.90;43.77;;
37223;Laerm;28026;48.562;14.440;2022-10-13T02:00:20;38.69;32.35;45.51;;
37223;Laerm;28026;48.562;14.440;2022-10-13T02:03:22;40.88;33.44;50.50;;
37223;Laerm;28026;48.562;14.440;2022-10-13T02:06:19;38.62;32.93;46.84;;
37223;Laerm;28026;48.562;14.440;2022-10-13T02:09:04;37.44;32.58;42.41;;
37223;Laerm;28026;48.562;14.440;2022-10-13T02:11:50;40.21;33.90;44.27;;
37223;Laerm;28026;48.562;14.440;2022-10-13T02:14:29;40.05;31.68;48.28;;
37223;Laerm;28026;48.562;14.440;2022-10-13T02:17:04;38.28;32.93;43.72;;
37223;Laerm;28026;48.562;14.440;2022-10-13T02:19:38;38.34;34.31;42.35;;
37223;Laerm;28026;48.562;14.440;2022-10-13T02:22:13;38.90;34.69;42.09;;
37223;Laerm;28026;48.562;14.440;2022-10-13T02:24:44;38.60;34.69;42.09;;
37223;Laerm;28026;48.562;14.440;2022-10-13T02:27:16;40.44;33.44;44.65;;
37223;Laerm;28026;48.562;14.440;2022-10-13T02:29:56;39.31;33.90;43.63;;
37223;Laerm;28026;48.562;14.440;2022-10-13T02:32:27;42.25;35.94;45.80;;
37223;Laerm;28026;48.562;14.440;2022-10-13T02:34:58;39.88;34.69;48.87;;
37223;Laerm;28026;48.562;14.440;2022-10-13T02:37:29;40.14;33.44;44.03;;
37223;Laerm;28026;48.562;14.440;2022-10-13T02:40:00;39.35;33.90;45.66;;
37223;Laerm;28026;48.562;14.440;2022-10-13T02:42:31;40.99;35.36;45.17;;
37223;Laerm;28026;48.562;14.440;2022-10-13T02:45:03;38.04;33.44;45.04;;
37223;Laerm;28026;48.562;14.440;2022-10-13T02:47:34;45.57;35.04;59.24;;
37223;Laerm;28026;48.562;14.440;2022-10-13T02:50:06;39.69;34.31;48.45;;
37223;Laerm;28026;48.562;14.440;2022-10-13T02:52:37;39.34;35.04;45.17;;
37223;Laerm;28026;48.562;14.440;2022-10-13T02:55:08;40.93;35.66;48.58;;
37223;Laerm;28026;48.562;14.440;2022-10-13T02:57:39;40.98;36.45;46.33;;
37223;Laerm;28026;48.562;14.440;2022-10-13T03:00:12;40.00;35.94;44.03;;
37223;Laerm;28026;48.562;14.440;2022-10-13T03:02:43;39.30;33.90;46.30;;
37223;Laerm;28026;48.562;14.440;2022-10-13T03:05:14;42.57;34.69;45.80;;
37223;Laerm;28026;48.562;14.440;2022-10-13T03:07:45;40.86;35.36;49.80;;
37223;Laerm;28026;48.562;14.440;2022-10-13T03:10:16;41.04;37.35;44.23;;
37223;Laerm;28026;48.562;14.440;2022-10-13T03:12:47;40.21;33.90;55.27;;
37223;Laerm;28026;48.562;14.440;2022-10-13T03:15:18;43.66;40.13;49.16;;
37223;Laerm;28026;48.562;14.440;2022-10-13T03:17:49;41.26;36.56;46.30;;
37223;Laerm;28026;48.562;14.440;2022-10-13T03:20:20;42.34;36.69;50.26;;
37223;Laerm;28026;48.562;14.440;2022-10-13T03:22:51;40.51;35.94;48.48;;
37223;Laerm;28026;48.562;14.440;2022-10-13T03:25:22;41.43;36.20;46.69;;
37223;Laerm;28026;48.562;14.440;2022-10-13T03:27:55;43.79;37.88;49.28;;
37223;Laerm;28026;48.562;14.440;2022-10-13T03:30:26;44.83;38.02;54.84;;
37223;Laerm;28026;48.562;14.440;2022-10-13T03:32:57;43.40;37.88;50.96;;
37223;Laerm;28026;48.562;14.440;2022-10-13T03:35:28;44.91;38.37;56.38;;
37223;Laerm;28026;48.562;14.440;2022-10-13T03:37:58;41.49;35.94;47.95;;
37223;Laerm;28026;48.562;14.440;2022-10-13T03:40:29;39.78;34.31;44.65;;
37223;Laerm;28026;48.562;14.440;2022-10-13T03:43:00;41.99;36.91;47.55;;
37223;Laerm;28026;48.562;14.440;2022-10-13T03:45:31;40.26;35.66;47.42;;
37223;Laerm;28026;48.562;14.440;2022-10-13T03:48:02;42.47;37.52;49.32;;
37223;Laerm;28026;48.562;14.440;2022-10-13T03:50:33;41.62;37.32;49.34;;
37223;Laerm;28026;48.562;14.440;2022-10-13T03:53:04;43.90;39.21;51.75;;
37223;Laerm;28026;48.562;14.440;2022-10-13T03:55:35;40.73;36.45;48.26;;
37223;Laerm;28026;48.562;14.440;2022-10-13T03:58:06;42.72;35.36;54.56;;
37223;Laerm;28026;48.562;14.440;2022-10-13T04:00:37;41.92;35.94;64.56;;
37223;Laerm;28026;48.562;14.440;2022-10-13T04:03:08;41.49;36.20;50.38;;
37223;Laerm;28026;48.562;14.440;2022-10-13T04:05:39;45.09;39.21;62.98;;
37223;Laerm;28026;48.562;14.440;2022-10-13T04:08:10;41.99;38.21;54.03;;
37223;Laerm;28026;48.562;14.440;2022-10-13T04:10:42;43.98;37.70;54.43;;
37223;Laerm;28026;48.562;14.440;2022-10-13T04:13:12;42.26;37.70;53.56;;
37223;Laerm;28026;48.562;14.440;2022-10-13T04:15:43;44.05;40.98;56.81;;
37223;Laerm;28026;48.562;14.440;2022-10-13T04:18:14;43.73;40.33;51.25;;
37223;Laerm;28026;48.562;14.440;2022-10-13T04:20:45;42.80;38.67;54.05;;
37223;Laerm;28026;48.562;14.440;2022-10-13T04:23:16;43.32;39.08;52.84;;
37223;Laerm;28026;48.562;14.440;2022-10-13T04:25:47;44.24;39.21;55.72;;
37223;Laerm;28026;48.562;14.440;2022-10-13T04:28:18;43.69;40.71;57.80;;
37223;Laerm;28026;48.562;14.440;2022-10-13T04:30:49;42.95;39.21;52.44;;
37223;Laerm;28026;48.562;14.440;2022-10-13T04:33:20;43.89;38.52;55.02;;
37223;Laerm;28026;48.562;14.440;2022-10-13T04:35:51;42.51;38.67;50.85;;
37223;Laerm;28026;48.562;14.440;2022-10-13T04:38:22;43.11;38.52;50.37;;
37223;Laerm;28026;48.562;14.440;2022-10-13T04:40:53;43.58;40.62;53.53;;
37223;Laerm;28026;48.562;14.440;2022-10-13T04:43:23;43.45;40.62;52.68;;
37223;Laerm;28026;48.562;14.440;2022-10-13T04:46:13;43.82;39.46;54.16;;
37223;Laerm;28026;48.562;14.440;2022-10-13T04:48:46;44.84;40.13;58.10;;
37223;Laerm;28026;48.562;14.440;2022-10-13T04:51:22;43.78;40.23;54.36;;
37223;Laerm;28026;48.562;14.440;2022-10-13T04:54:00;44.27;40.23;52.24;;
37223;Laerm;28026;48.562;14.440;2022-10-13T04:56:31;43.99;39.46;52.24;;
37223;Laerm;28026;48.562;14.440;2022-10-13T04:59:04;44.24;39.58;53.74;;
37223;Laerm;28026;48.562;14.440;2022-10-13T05:01:35;43.38;38.52;57.65;;
37223;Laerm;28026;48.562;14.440;2022-10-13T05:04:08;43.71;37.52;51.30;;
37223;Laerm;28026;48.562;14.440;2022-10-13T05:06:42;41.15;37.32;53.58;;
37223;Laerm;28026;48.562;14.440;2022-10-13T05:09:14;41.89;36.91;54.21;;
37223;Laerm;28026;48.562;14.440;2022-10-13T05:11:48;42.40;37.53;55.21;;
37223;Laerm;28026;48.562;14.440;2022-10-13T05:14:21;45.09;39.70;54.62;;
37223;Laerm;28026;48.562;14.440;2022-10-13T05:16:52;44.92;40.03;55.37;;
37223;Laerm;28026;48.562;14.440;2022-10-13T05:19:23;45.19;38.67;51.91;;
37223;Laerm;28026;48.562;14.440;2022-10-13T05:21:54;43.50;38.21;49.56;;
37223;Laerm;28026;48.562;14.440;2022-10-13T05:24:25;45.67;42.59;54.03;;
37223;Laerm;28026;48.562;14.440;2022-10-13T05:27:12;45.85;40.23;54.00;;
37223;Laerm;28026;48.562;14.440;2022-10-13T05:29:43;41.98;37.32;53.77;;
37223;Laerm;28026;48.562;14.440;2022-10-13T05:32:13;42.47;37.12;54.34;;
37223;Laerm;28026;48.562;14.440;2022-10-13T05:34:47;43.07;38.52;51.53;;
37223;Laerm;28026;48.562;14.440;2022-10-13T05:37:18;42.22;37.88;53.69;;
37223;Laerm;28026;48.562;14.440;2022-10-13T05:39:52;42.22;37.70;47.77;;
37223;Laerm;28026;48.562;14.440;2022-10-13T05:42:23;41.81;37.12;51.47;;
37223;Laerm;28026;48.562;14.440;2022-10-13T05:44:56;42.30;38.32;55.49;;
37223;Laerm;28026;48.562;14.440;2022-10-13T05:47:26;42.20;37.88;54.24;;
37223;Laerm;28026;48.562;14.440;2022-10-13T05:49:57;43.32;37.70;51.17;;
37223;Laerm;28026;48.562;14.440;2022-10-13T05:52:32;43.12;39.08;48.92;;
37223;Laerm;28026;48.562;14.440;2022-10-13T05:55:09;44.09;41.06;49.91;;
37223;Laerm;28026;48.562;14.440;2022-10-13T05:57:48;43.21;40.03;50.37;;
37223;Laerm;28026;48.562;14.440;2022-10-13T06:00:21;41.95;38.21;54.38;;
37223;Laerm;28026;48.562;14.440;2022-10-13T06:03:16;43.59;38.67;50.81;;
37223;Laerm;28026;48.562;14.440;2022-10-13T06:05:49;41.75;37.12;53.99;;
37223;Laerm;28026;48.562;14.440;2022-10-13T06:08:19;41.21;36.91;55.27;;
37223;Laerm;28026;48.562;14.440;2022-10-13T06:10:51;43.00;38.37;46.28;;
37223;Laerm;28026;48.562;14.440;2022-10-13T06:13:22;41.09;37.70;47.32;;
37223;Laerm;28026;48.562;14.440;2022-10-13T06:15:53;41.28;37.12;49.33;;
37223;Laerm;28026;48.562;14.440;2022-10-13T06:18:24;42.25;36.91;50.30;;
37223;Laerm;28026;48.562;14.440;2022-10-13T06:20:55;42.67;37.70;50.53;;
37223;Laerm;28026;48.562;14.440;2022-10-13T06:23:26;43.63;38.47;54.30;;
37223;Laerm;28026;48.562;14.440;2022-10-13T06:25:57;42.41;38.74;50.07;;
37223;Laerm;28026;48.562;14.440;2022-10-13T06:28:28;40.87;37.70;55.35;;
37223;Laerm;28026;48.562;14.440;2022-10-13T06:30:59;41.58;38.21;50.54;;
37223;Laerm;28026;48.562;14.440;2022-10-13T06:33:29;42.79;38.95;48.92;;
37223;Laerm;28026;48.562;14.440;2022-10-13T06:36:03;42.04;38.37;57.39;;
37223;Laerm;28026;48.562;14.440;2022-10-13T06:38:34;42.95;38.05;49.30;;
37223;Laerm;28026;48.562;14.440;2022-10-13T06:41:06;42.63;39.92;52.61;;
37223;Laerm;28026;48.562;14.440;2022-10-13T06:43:37;42.66;38.95;47.36;;
37223;Laerm;28026;48.562;14.440;2022-10-13T06:46:10;42.35;38.81;46.57;;
37223;Laerm;28026;48.562;14.440;2022-10-13T06:48:41;44.83;40.13;53.87;;
37223;Laerm;28026;48.562;14.440;2022-10-13T06:51:12;43.29;40.13;51.84;;
37223;Laerm;28026;48.562;14.440;2022-10-13T06:53:43;43.30;38.67;54.84;;
37223;Laerm;28026;48.562;14.440;2022-10-13T06:56:14;42.48;38.47;46.43;;
37223;Laerm;28026;48.562;14.440;2022-10-13T06:58:45;44.34;39.81;50.41;;
37223;Laerm;28026;48.562;14.440;2022-10-13T07:01:16;42.16;39.34;50.16;;
37223;Laerm;28026;48.562;14.440;2022-10-13T07:03:51;42.18;38.21;47.38;;
37223;Laerm;28026;48.562;14.440;2022-10-13T07:06:22;43.56;38.81;52.17;;
37223;Laerm;28026;48.562;14.440;2022-10-13T07:08:53;41.69;37.88;51.40;;
37223;Laerm;28026;48.562;14.440;2022-10-13T07:11:24;42.85;39.08;45.77;;
37223;Laerm;28026;48.562;14.440;2022-10-13T07:13:55;44.42;40.53;52.71;;
37223;Laerm;28026;48.562;14.440;2022-10-13T07:16:26;43.57;40.33;47.42;;
37223;Laerm;28026;48.562;14.440;2022-10-13T07:18:57;45.29;41.22;53.04;;
37223;Laerm;28026;48.562;14.440;2022-10-13T07:21:28;46.15;40.71;52.41;;
37223;Laerm;28026;48.562;14.440;2022-10-13T07:24:01;44.36;40.13;50.60;;
37223;Laerm;28026;48.562;14.440;2022-10-13T07:26:33;44.98;39.99;52.81;;
37223;Laerm;28026;48.562;14.440;2022-10-13T07:29:05;45.40;39.70;55.84;;
37223;Laerm;28026;48.562;14.440;2022-10-13T07:31:36;44.09;40.43;54.06;;
37223;Laerm;28026;48.562;14.440;2022-10-13T07:34:07;42.20;39.21;48.36;;
37223;Laerm;28026;48.562;14.440;2022-10-13T07:36:38;42.64;38.52;49.57;;
37223;Laerm;28026;48.562;14.440;2022-10-13T07:39:11;43.15;39.21;51.20;;
37223;Laerm;28026;48.562;14.440;2022-10-13T07:41:42;43.80;40.43;51.40;;
37223;Laerm;28026;48.562;14.440;2022-10-13T07:44:13;42.49;38.67;46.20;;
37223;Laerm;28026;48.562;14.440;2022-10-13T07:46:45;43.62;39.70;55.44;;
37223;Laerm;28026;48.562;14.440;2022-10-13T07:49:16;42.98;39.70;53.02;;
37223;Laerm;28026;48.562;14.440;2022-10-13T07:51:47;43.36;39.58;53.37;;
37223;Laerm;28026;48.562;14.440;2022-10-13T07:54:18;44.81;39.70;57.55;;
37223;Laerm;28026;48.562;14.440;2022-10-13T07:56:54;42.09;38.37;47.44;;
37223;Laerm;28026;48.562;14.440;2022-10-13T07:59:25;41.47;38.37;45.57;;
37223;Laerm;28026;48.562;14.440;2022-10-13T08:01:56;41.82;37.32;44.83;;
37223;Laerm;28026;48.562;14.440;2022-10-13T08:04:33;41.34;37.12;45.14;;
37223;Laerm;28026;48.562;14.440;2022-10-13T08:07:05;40.90;38.05;49.52;;
37223;Laerm;28026;48.562;14.440;2022-10-13T08:09:37;42.03;36.91;45.42;;
37223;Laerm;28026;48.562;14.440;2022-10-13T08:12:10;42.64;39.46;49.53;;
37223;Laerm;28026;48.562;14.440;2022-10-13T08:14:41;42.33;38.81;50.35;;
37223;Laerm;28026;48.562;14.440;2022-10-13T08:17:12;41.73;37.70;49.27;;
37223;Laerm;28026;48.562;14.440;2022-10-13T08:19:43;42.24;38.81;45.33;;
37223;Laerm;28026;48.562;14.440;2022-10-13T08:22:14;41.57;37.88;47.04;;
37223;Laerm;28026;48.562;14.440;2022-10-13T08:24:45;41.56;36.69;49.39;;
37223;Laerm;28026;48.562;14.440;2022-10-13T08:27:23;42.00;37.35;52.38;;
37223;Laerm;28026;48.562;14.440;2022-10-13T08:29:54;45.78;38.95;53.49;;
37223;Laerm;28026;48.562;14.440;2022-10-13T08:32:25;47.30;39.81;71.20;;
37223;Laerm;28026;48.562;14.440;2022-10-13T08:34:56;42.59;38.52;52.43;;
37223;Laerm;28026;48.562;14.440;2022-10-13T08:37:27;42.30;38.52;54.02;;
37223;Laerm;28026;48.562;14.440;2022-10-13T08:39:58;42.92;38.67;56.95;;
37223;Laerm;28026;48.562;14.440;2022-10-13T08:42:29;42.69;39.08;54.32;;
37223;Laerm;28026;48.562;14.440;2022-10-13T08:45:03;51.06;38.67;83.26;;
37223;Laerm;28026;48.562;14.440;2022-10-13T08:47:58;51.04;38.05;75.78;;
37223;Laerm;28026;48.562;14.440;2022-10-13T08:50:38;42.21;38.21;50.14;;
37223;Laerm;28026;48.562;14.440;2022-10-13T08:53:22;42.34;35.94;62.65;;
37223;Laerm;28026;48.562;14.440;2022-10-13T08:58:50;44.86;39.46;58.98;;
37223;Laerm;28026;48.562;14.440;2022-10-13T09:01:35;43.20;38.67;56.70;;
37223;Laerm;28026;48.562;14.440;2022-10-13T09:04:34;43.33;40.13;55.18;;
37223;Laerm;28026;48.562;14.440;2022-10-13T09:07:25;42.66;37.32;52.81;;
37223;Laerm;28026;48.562;14.440;2022-10-13T09:09:57;45.02;36.91;75.44;;
37223;Laerm;28026;48.562;14.440;2022-10-13T09:12:28;42.22;38.05;48.28;;
37223;Laerm;28026;48.562;14.440;2022-10-13T09:15:10;44.25;39.81;60.05;;
37223;Laerm;28026;48.562;14.440;2022-10-13T09:17:41;43.04;37.70;60.52;;
37223;Laerm;28026;48.562;14.440;2022-10-13T09:20:25;42.33;38.21;61.15;;
37223;Laerm;28026;48.562;14.440;2022-10-13T09:23:18;41.50;36.45;61.24;;
37223;Laerm;28026;48.562;14.440;2022-10-13T09:25:51;43.18;36.45;64.88;;
37223;Laerm;28026;48.562;14.440;2022-10-13T09:28:29;41.59;36.69;57.37;;
37223;Laerm;28026;48.562;14.440;2022-10-13T09:31:22;41.65;35.66;57.59;;
37223;Laerm;28026;48.562;14.440;2022-10-13T09:34:15;40.86;36.69;57.48;;
37223;Laerm;28026;48.562;14.440;2022-10-13T09:39:29;42.40;35.94;56.55;;
37223;Laerm;28026;48.562;14.440;2022-10-13T09:42:27;41.23;36.45;56.31;;
37223;Laerm;28026;48.562;14.440;2022-10-13T09:45:16;42.85;37.12;55.91;;
37223;Laerm;28026;48.562;14.440;2022-10-13T09:47:57;42.80;36.91;53.58;;
37223;Laerm;28026;48.562;14.440;2022-10-13T09:50:31;41.01;35.66;54.70;;
37223;Laerm;28026;48.562;14.440;2022-10-13T09:53:36;43.76;39.21;53.22;;
37223;Laerm;28026;48.562;14.440;2022-10-13T09:56:27;41.82;36.69;47.04;;
37223;Laerm;28026;48.562;14.440;2022-10-13T09:59:32;43.15;37.32;61.67;;
37223;Laerm;28026;48.562;14.440;2022-10-13T10:02:35;42.56;36.20;56.38;;
37223;Laerm;28026;48.562;14.440;2022-10-13T10:05:40;42.74;36.91;60.68;;
37223;Laerm;28026;48.562;14.440;2022-10-13T10:08:37;42.67;37.12;58.92;;
37223;Laerm;28026;48.562;14.440;2022-10-13T10:11:29;41.63;36.91;54.17;;
37223;Laerm;28026;48.562;14.440;2022-10-13T10:14:37;40.66;36.45;48.12;;
37223;Laerm;28026;48.562;14.440;2022-10-13T10:17:29;42.68;38.37;47.72;;
37223;Laerm;28026;48.562;14.440;2022-10-13T10:20:31;44.00;39.21;51.38;;
37223;Laerm;28026;48.562;14.440;2022-10-13T10:23:38;40.90;36.20;48.74;;
37223;Laerm;28026;48.562;14.440;2022-10-13T10:29:22;43.26;36.56;57.03;;
37223;Laerm;28026;48.562;14.440;2022-10-13T10:32:25;43.28;37.70;59.03;;
37223;Laerm;28026;48.562;14.440;2022-10-13T10:35:15;42.34;36.69;50.00;;
37223;Laerm;28026;48.562;14.440;2022-10-13T10:41:40;40.76;35.04;51.29;;
37223;Laerm;28026;48.562;14.440;2022-10-13T10:47:01;42.52;35.36;55.91;;
37223;Laerm;28026;48.562;14.440;2022-10-13T10:49:36;44.49;37.88;58.30;;
37223;Laerm;28026;48.562;14.440;2022-10-13T10:52:27;43.33;35.94;55.75;;
37223;Laerm;28026;48.562;14.440;2022-10-13T10:55:42;45.12;37.52;71.83;;
37223;Laerm;28026;48.562;14.440;2022-10-13T11:04:45;49.08;37.12;75.19;;
37223;Laerm;28026;48.562;14.440;2022-10-13T11:15:40;41.11;37.12;46.35;;
37223;Laerm;28026;48.562;14.440;2022-10-13T11:35:25;43.52;37.52;65.26;;
37223;Laerm;28026;48.562;14.440;2022-10-13T11:38:02;45.96;38.52;69.32;;
37223;Laerm;28026;48.562;14.440;2022-10-13T11:41:13;44.47;38.37;61.28;;
37223;Laerm;28026;48.562;14.440;2022-10-13T11:44:12;45.12;38.67;69.27;;
37223;Laerm;28026;48.562;14.440;2022-10-13T11:46:59;45.17;36.69;70.18;;
37223;Laerm;28026;48.562;14.440;2022-10-13T11:50:06;42.08;36.20;65.45;;
37223;Laerm;28026;48.562;14.440;2022-10-13T11:55:57;44.14;37.88;64.61;;
37223;Laerm;28026;48.562;14.440;2022-10-13T11:58:32;43.64;38.52;61.33;;
37223;Laerm;28026;48.562;14.440;2022-10-13T12:01:12;47.18;38.47;66.86;;
37223;Laerm;28026;48.562;14.440;2022-10-13T12:03:45;44.16;37.88;65.26;;
37223;Laerm;28026;48.562;14.440;2022-10-13T12:06:31;46.46;37.70;68.72;;
37223;Laerm;28026;48.562;14.440;2022-10-13T12:09:17;58.40;39.58;86.41;;
37223;Laerm;28026;48.562;14.440;2022-10-13T12:12:11;53.24;37.88;79.41;;
37223;Laerm;28026;48.562;14.440;2022-10-13T12:14:49;43.26;38.95;57.15;;
37223;Laerm;28026;48.562;14.440;2022-10-13T12:20:23;49.94;36.91;73.45;;
37223;Laerm;28026;48.562;14.440;2022-10-13T12:22:56;43.56;36.45;61.10;;
37223;Laerm;28026;48.562;14.440;2022-10-13T12:25:29;44.25;38.67;64.71;;
37223;Laerm;28026;48.562;14.440;2022-10-13T12:28:03;49.24;37.12;78.28;;
37223;Laerm;28026;48.562;14.440;2022-10-13T12:30:34;52.50;37.52;72.64;;
37223;Laerm;28026;48.562;14.440;2022-10-13T12:33:33;52.52;36.69;85.77;;
37223;Laerm;28026;48.562;14.440;2022-10-13T12:36:19;55.07;36.20;84.52;;
37223;Laerm;28026;48.562;14.440;2022-10-13T12:39:00;48.92;36.69;74.24;;
37223;Laerm;28026;48.562;14.440;2022-10-13T12:41:37;47.65;37.88;72.10;;
37223;Laerm;28026;48.562;14.440;2022-10-13T12:44:27;47.97;38.21;70.11;;
37223;Laerm;28026;48.562;14.440;2022-10-13T12:47:01;43.62;38.02;60.51;;
37223;Laerm;28026;48.562;14.440;2022-10-13T12:49:35;44.24;38.05;62.40;;
37223;Laerm;28026;48.562;14.440;2022-10-13T12:52:21;46.42;37.88;69.98;;
37223;Laerm;28026;48.562;14.440;2022-10-13T12:54:56;42.09;37.88;65.40;;
37223;Laerm;28026;48.562;14.440;2022-10-13T12:57:36;51.37;36.20;77.72;;
37223;Laerm;28026;48.562;14.440;2022-10-13T13:00:25;43.54;37.12;59.20;;
37223;Laerm;28026;48.562;14.440;2022-10-13T13:05:42;51.31;40.62;73.54;;
37223;Laerm;28026;48.562;14.440;2022-10-13T13:08:28;49.72;38.21;77.66;;
37223;Laerm;28026;48.562;14.440;2022-10-13T13:11:15;43.60;36.77;61.24;;
37223;Laerm;28026;48.562;14.440;2022-10-13T13:13:49;47.87;37.35;72.26;;
37223;Laerm;28026;48.562;14.440;2022-10-13T13:16:21;43.70;38.05;62.44;;
37223;Laerm;28026;48.562;14.440;2022-10-13T13:18:53;43.50;37.32;63.19;;
37223;Laerm;28026;48.562;14.440;2022-10-13T13:21:24;44.96;38.21;65.22;;
37223;Laerm;28026;48.562;14.440;2022-10-13T13:23:54;46.39;39.21;69.02;;
37223;Laerm;28026;48.562;14.440;2022-10-13T13:26:25;47.53;38.05;69.21;;
37223;Laerm;28026;48.562;14.440;2022-10-13T13:28:58;53.01;35.94;85.06;;
37223;Laerm;28026;48.562;14.440;2022-10-13T13:31:29;47.10;36.45;72.42;;
37223;Laerm;28026;48.562;14.440;2022-10-13T13:34:00;53.64;37.32;76.63;;
37223;Laerm;28026;48.562;14.440;2022-10-13T13:36:31;45.69;34.69;70.11;;
37223;Laerm;28026;48.562;14.440;2022-10-13T13:39:02;49.77;36.69;75.99;;
37223;Laerm;28026;48.562;14.440;2022-10-13T13:41:33;46.60;38.67;67.98;;
37223;Laerm;28026;48.562;14.440;2022-10-13T13:44:03;45.28;37.12;67.36;;
37223;Laerm;28026;48.562;14.440;2022-10-13T13:46:34;47.67;37.87;72.18;;
37223;Laerm;28026;48.562;14.440;2022-10-13T13:49:05;42.81;36.45;55.77;;
37223;Laerm;28026;48.562;14.440;2022-10-13T13:51:36;45.44;36.91;65.33;;
37223;Laerm;28026;48.562;14.440;2022-10-13T13:54:07;45.56;36.91;66.90;;
37223;Laerm;28026;48.562;14.440;2022-10-13T13:56:38;49.42;38.21;77.39;;
37223;Laerm;28026;48.562;14.440;2022-10-13T13:59:09;44.45;37.32;67.55;;
37223;Laerm;28026;48.562;14.440;2022-10-13T14:01:40;49.54;36.69;73.62;;
37223;Laerm;28026;48.562;14.440;2022-10-13T14:04:11;43.23;36.91;59.80;;
37223;Laerm;28026;48.562;14.440;2022-10-13T14:06:42;42.11;37.12;57.93;;
37223;Laerm;28026;48.562;14.440;2022-10-13T14:09:13;45.10;35.94;68.63;;
37223;Laerm;28026;48.562;14.440;2022-10-13T14:11:43;50.43;36.91;77.63;;
37223;Laerm;28026;48.562;14.440;2022-10-13T14:14:14;51.03;41.61;68.35;;
37223;Laerm;28026;48.562;14.440;2022-10-13T14:16:45;46.84;37.12;67.71;;
37223;Laerm;28026;48.562;14.440;2022-10-13T14:19:16;45.49;36.20;71.31;;
37223;Laerm;28026;48.562;14.440;2022-10-13T14:21:47;47.07;37.52;71.38;;
37223;Laerm;28026;48.562;14.440;2022-10-13T14:24:19;51.37;38.05;77.47;;
37223;Laerm;28026;48.562;14.440;2022-10-13T14:26:50;47.87;38.05;71.33;;
37223;Laerm;28026;48.562;14.440;2022-10-13T14:29:21;44.17;39.58;63.19;;
37223;Laerm;28026;48.562;14.440;2022-10-13T14:31:52;43.58;35.66;60.46;;
37223;Laerm;28026;48.562;14.440;2022-10-13T14:34:23;44.52;40.23;56.03;;
37223;Laerm;28026;48.562;14.440;2022-10-13T14:36:54;45.93;38.52;72.43;;
37223;Laerm;28026;48.562;14.440;2022-10-13T14:39:25;43.29;39.81;52.97;;
37223;Laerm;28026;48.562;14.440;2022-10-13T14:41:56;44.05;38.21;66.16;;
37223;Laerm;28026;48.562;14.440;2022-10-13T14:44:27;43.22;37.52;59.14;;
37223;Laerm;28026;48.562;14.440;2022-10-13T14:46:58;44.90;38.37;66.59;;
37223;Laerm;28026;48.562;14.440;2022-10-13T14:49:29;43.96;37.32;59.60;;
37223;Laerm;28026;48.562;14.440;2022-10-13T14:51:59;46.41;38.67;71.30;;
37223;Laerm;28026;48.562;14.440;2022-10-13T14:54:31;45.60;37.32;68.03;;
37223;Laerm;28026;48.562;14.440;2022-10-13T14:57:02;45.10;41.94;58.72;;
37223;Laerm;28026;48.562;14.440;2022-10-13T14:59:35;43.86;39.58;50.66;;
37223;Laerm;28026;48.562;14.440;2022-10-13T15:02:07;47.84;41.14;54.08;;
37223;Laerm;28026;48.562;14.440;2022-10-13T15:04:38;43.55;38.81;56.96;;
37223;Laerm;28026;48.562;14.440;2022-10-13T15:07:10;46.71;41.06;53.69;;
37223;Laerm;28026;48.562;14.440;2022-10-13T15:09:40;44.92;39.34;61.70;;
37223;Laerm;28026;48.562;14.440;2022-10-13T15:12:11;44.66;40.62;49.85;;
37223;Laerm;28026;48.562;14.440;2022-10-13T15:14:42;43.89;39.46;59.69;;
37223;Laerm;28026;48.562;14.440;2022-10-13T15:17:13;46.26;40.71;53.71;;
37223;Laerm;28026;48.562;14.440;2022-10-13T15:19:44;46.99;42.29;52.80;;
37223;Laerm;28026;48.562;14.440;2022-10-13T15:22:15;47.33;42.47;59.35;;
37223;Laerm;28026;48.562;14.440;2022-10-13T15:24:46;44.00;39.21;57.70;;
37223;Laerm;28026;48.562;14.440;2022-10-13T15:27:17;43.97;39.08;57.82;;
37223;Laerm;28026;48.562;14.440;2022-10-13T15:29:48;43.44;39.58;52.30;;
37223;Laerm;28026;48.562;14.440;2022-10-13T15:32:19;44.72;39.21;50.85;;
37223;Laerm;28026;48.562;14.440;2022-10-13T15:34:50;48.84;41.89;57.35;;
37223;Laerm;28026;48.562;14.440;2022-10-13T15:37:21;46.17;40.62;54.34;;